Time;durP1;ratioP1;P1;durP2;ratioP2;P2;SDS_P1;SDS_P2;PMS_P1;PMS_P2;Temp;Humidity;BMP_temperature;BMP_pressure;BME280_temperature;BME280_humidity;BME280_pressure;Samples;Min_cycle;Max_cycle;Signal;HPM_P1;HPM_P2
2022/04/28 00:00:24;;;;;;;18.60;10.90;;;;;;;13.88;100.00;97464.28;5094416;28;20027;-91
2022/04/28 00:02:50;;;;;;;19.63;11.63;;;;;;;13.92;100.00;97472.97;5077487;28;20119;-92
2022/04/28 00:05:16;;;;;;;21.58;13.05;;;;;;;13.99;100.00;97485.84;5094338;28;20110;-91
2022/04/28 00:07:43;;;;;;;17.58;11.35;;;;;;;13.94;100.00;97490.69;5094840;28;20089;-91
2022/04/28 00:10:10;;;;;;;20.55;12.50;;;;;;;13.83;100.00;97484.44;5095093;28;20120;-92
2022/04/28 00:12:36;;;;;;;18.27;11.07;;;;;;;13.95;100.00;97505.00;5078035;28;20056;-91
2022/04/28 00:15:03;;;;;;;24.05;10.98;;;;;;;13.88;100.00;97501.06;5094366;28;20059;-92
2022/04/28 00:17:29;;;;;;;15.35;10.00;;;;;;;13.88;100.00;97511.81;5079369;28;20036;-91
2022/04/28 00:19:55;;;;;;;13.10;9.07;;;;;;;13.87;100.00;97524.41;5096637;28;20119;-91
2022/04/28 00:22:23;;;;;;;14.73;9.80;;;;;;;13.85;100.00;97517.44;5096525;28;20495;-91
2022/04/28 00:24:48;;;;;;;16.70;9.95;;;;;;;13.98;100.00;97523.59;5096039;28;20036;-90
2022/04/28 00:27:14;;;;;;;11.30;8.50;;;;;;;14.03;100.00;97524.09;5096396;28;20094;-90
2022/04/28 00:29:40;;;;;;;13.75;7.50;;;;;;;14.11;100.00;97521.69;5097122;28;20028;-90
2022/04/28 00:32:06;;;;;;;15.07;7.95;;;;;;;14.19;100.00;97532.72;5096783;28;20082;-91
2022/04/28 00:34:32;;;;;;;14.93;8.80;;;;;;;14.28;100.00;97539.22;5080232;28;20028;-91
2022/04/28 00:36:57;;;;;;;10.25;7.97;;;;;;;14.27;100.00;97533.00;5096913;28;20065;-91
2022/04/28 00:39:23;;;;;;;10.57;7.82;;;;;;;14.37;100.00;97531.31;5096262;28;20034;-90
2022/04/28 00:41:49;;;;;;;11.27;7.78;;;;;;;14.49;100.00;97541.16;5096506;28;20089;-91
2022/04/28 00:44:14;;;;;;;11.45;7.30;;;;;;;14.50;100.00;97537.47;5078791;28;20028;-89
2022/04/28 00:46:42;;;;;;;12.10;7.50;;;;;;;14.53;100.00;97541.75;5080147;28;20039;-90
2022/04/28 00:51:52;;;;;;;10.45;6.30;;;;;;;14.60;100.00;97532.25;5096744;28;20043;-92
2022/04/28 00:54:18;;;;;;;9.38;6.75;;;;;;;14.61;100.00;97540.19;5096149;28;20024;-89
2022/04/28 00:56:44;;;;;;;8.95;6.30;;;;;;;14.67;100.00;97555.03;5095915;28;20030;-92
2022/04/28 00:59:10;;;;;;;8.57;5.75;;;;;;;14.75;100.00;97554.41;5096204;28;20027;-90
2022/04/28 01:01:37;;;;;;;7.55;5.82;;;;;;;14.78;100.00;97541.56;5080476;28;20063;-91
2022/04/28 01:04:03;;;;;;;8.20;5.88;;;;;;;14.86;100.00;97554.44;5098664;28;20024;-91
2022/04/28 01:06:28;;;;;;;8.20;5.40;;;;;;;14.86;100.00;97549.06;5081766;28;20043;-91
2022/04/28 01:08:57;;;;;;;8.27;5.22;;;;;;;14.84;100.00;97551.00;5082311;28;20024;-91
2022/04/28 01:11:23;;;;;;;6.50;5.30;;;;;;;14.81;100.00;97557.47;5084071;28;20039;-91
2022/04/28 01:13:48;;;;;;;7.65;4.72;;;;;;;14.86;100.00;97559.81;5096675;28;20025;-90
2022/04/28 01:16:15;;;;;;;9.50;5.18;;;;;;;14.90;100.00;97559.44;5098411;28;20039;-91
2022/04/28 01:18:41;;;;;;;6.00;5.03;;;;;;;14.86;100.00;97551.75;5099194;28;20024;-91
2022/04/28 01:21:07;;;;;;;10.02;5.18;;;;;;;14.72;100.00;97539.34;5098057;28;20024;-90
2022/04/28 01:23:34;;;;;;;6.45;4.72;;;;;;;14.89;100.00;97559.59;5097233;28;20023;-90
2022/04/28 01:26:00;;;;;;;4.93;4.30;;;;;;;14.94;100.00;97554.69;5080695;28;20024;-90
2022/04/28 01:28:35;;;;;;;8.27;4.50;;;;;;;14.93;100.00;97544.88;5080057;28;20028;-90
2022/04/28 01:31:02;;;;;;;9.20;4.82;;;;;;;15.03;100.00;97556.63;5097044;28;20028;-91
2022/04/28 01:33:28;;;;;;;12.68;4.35;;;;;;;14.97;100.00;97551.75;5097697;28;20031;-90
2022/04/28 01:35:53;;;;;;;8.00;4.43;;;;;;;15.02;100.00;97549.53;5097883;28;20127;-90
2022/04/28 01:38:19;;;;;;;7.07;5.00;;;;;;;14.99;100.00;97552.47;5097410;28;20518;-90
2022/04/28 01:40:45;;;;;;;8.38;5.05;;;;;;;14.98;100.00;97546.22;5098261;28;20031;-91
2022/04/28 01:43:10;;;;;;;6.35;4.78;;;;;;;14.96;100.00;97550.88;5096565;28;20036;-90
2022/04/28 01:45:36;;;;;;;10.80;5.00;;;;;;;14.78;100.00;97533.50;5096857;28;20447;-90
2022/04/28 01:48:01;;;;;;;6.45;4.63;;;;;;;14.86;100.00;97549.06;5097745;28;20032;-90
2022/04/28 01:50:27;;;;;;;7.93;5.13;;;;;;;14.82;100.00;97534.09;5081459;28;20028;-90
2022/04/28 01:55:37;;;;;;;7.90;4.47;;;;;;;14.86;100.00;97543.66;5097264;28;20038;-90
2022/04/28 01:58:02;;;;;;;8.68;4.60;;;;;;;14.92;100.00;97544.00;5097224;28;20479;-91
2022/04/28 02:00:29;;;;;;;16.90;4.75;;;;;;;14.93;100.00;97534.09;5096814;28;20024;-91
2022/04/28 02:02:55;;;;;;;8.13;4.40;;;;;;;14.98;100.00;97554.28;5096087;28;20115;-90
2022/04/28 02:05:20;;;;;;;8.18;4.28;;;;;;;14.96;100.00;97542.81;5095902;28;20055;-90
2022/04/28 02:07:46;;;;;;;6.15;4.28;;;;;;;15.03;100.00;97552.13;5096054;28;20034;-91
2022/04/28 02:10:12;;;;;;;6.82;4.22;;;;;;;15.01;100.00;97537.06;5096110;28;20042;-90
2022/04/28 02:12:38;;;;;;;8.60;4.55;;;;;;;15.04;100.00;97545.72;5079018;28;20074;-90
2022/04/28 02:15:04;;;;;;;8.05;4.35;;;;;;;15.05;100.00;97549.28;5096228;28;20564;-90
2022/04/28 02:17:35;;;;;;;6.85;4.78;;;;;;;15.07;100.00;97550.03;5078795;28;20093;-91
2022/04/28 02:20:09;;;;;;;7.05;5.70;;;;;;;15.05;100.00;97551.97;5079039;28;20485;-91
2022/04/28 02:22:36;;;;;;;8.48;6.97;;;;;;;14.92;100.00;97549.41;5094809;28;20035;-90
2022/04/28 02:25:01;;;;;;;8.52;6.00;;;;;;;14.92;100.00;97553.94;5091126;28;20402;-74
2022/04/28 02:27:27;;;;;;;9.18;5.90;;;;;;;14.95;100.00;97559.09;5090337;28;20023;-74
2022/04/28 02:29:53;;;;;;;14.90;6.60;;;;;;;14.98;100.00;97556.16;5090500;28;20027;-74
2022/04/28 02:32:19;;;;;;;11.18;5.82;;;;;;;15.11;100.00;97555.03;5090773;28;20131;-74
2022/04/28 02:34:45;;;;;;;8.77;6.10;;;;;;;15.14;100.00;97556.63;5090148;28;20077;-73
2022/04/28 02:37:10;;;;;;;11.52;6.25;;;;;;;15.06;100.00;97557.25;5090261;28;20126;-73
2022/04/28 02:39:36;;;;;;;11.85;6.30;;;;;;;15.10;100.00;97566.78;5088933;28;20535;-73
2022/04/28 02:42:02;;;;;;;9.02;6.30;;;;;;;15.05;100.00;97568.13;5089956;28;20028;-74
2022/04/28 02:44:27;;;;;;;8.15;6.20;;;;;;;14.97;100.00;97568.75;5090047;28;20402;-73
2022/04/28 02:46:53;;;;;;;9.95;6.22;;;;;;;15.11;100.00;97581.13;5089953;28;20020;-73
2022/04/28 02:49:18;;;;;;;15.15;6.20;;;;;;;15.09;100.00;97577.69;5090231;28;20479;-75
2022/04/28 02:51:44;;;;;;;11.07;6.53;;;;;;;14.98;100.00;97575.00;5091389;28;20024;-73
2022/04/28 02:54:10;;;;;;;13.73;6.55;;;;;;;15.02;100.00;97576.47;5090282;28;20486;-73
2022/04/28 02:56:36;;;;;;;10.57;5.90;;;;;;;15.06;100.00;97594.13;5089710;28;20035;-73
2022/04/28 02:59:02;;;;;;;9.93;6.00;;;;;;;14.95;100.00;97580.66;5072840;28;20020;-75
2022/04/28 03:01:27;;;;;;;8.13;5.43;;;;;;;14.86;100.00;97584.91;5090225;28;20020;-72
2022/04/28 03:03:53;;;;;;;8.10;6.30;;;;;;;14.86;100.00;97590.28;5089565;28;20099;-72
2022/04/28 03:11:49;;;;;;;9.27;5.50;;;;;;;14.86;100.00;97603.75;5090101;28;20430;-73
2022/04/28 03:14:15;;;;;;;6.93;4.50;;;;;;;14.92;100.00;97611.34;5089410;28;20032;-73
2022/04/28 03:17:13;;;;;;;7.53;4.47;;;;;;;14.92;100.00;97613.22;5089772;28;20484;-74
2022/04/28 03:19:38;;;;;;;5.22;4.45;;;;;;;14.76;100.00;97597.38;5086065;28;20089;-74
2022/04/28 03:22:04;;;;;;;4.50;3.50;;;;;;;14.83;100.00;97604.00;5089154;28;20437;-74
2022/04/28 03:24:29;;;;;;;4.43;3.50;;;;;;;14.81;100.00;97614.03;5090730;28;20024;-74
2022/04/28 03:26:55;;;;;;;7.53;3.90;;;;;;;14.70;100.00;97608.63;5089410;28;20026;-73
2022/04/28 03:29:21;;;;;;;5.28;3.83;;;;;;;14.65;100.00;97618.88;5089477;28;20376;-74
2022/04/28 03:31:46;;;;;;;7.03;2.95;;;;;;;14.65;100.00;97619.75;5089141;28;20039;-73
2022/04/28 03:34:12;;;;;;;3.83;3.17;;;;;;;14.61;100.00;97615.56;5089428;28;20064;-73
2022/04/28 03:36:53;;;;;;;3.40;3.10;;;;;;;14.55;100.00;97609.81;5089104;28;20032;-73
2022/04/28 03:39:19;;;;;;;4.97;2.83;;;;;;;14.24;100.00;97627.41;5091241;28;20084;-73
2022/04/28 03:41:44;;;;;;;3.28;2.88;;;;;;;14.17;100.00;97630.66;5088913;28;20027;-73
2022/04/28 03:44:10;;;;;;;3.47;3.17;;;;;;;14.16;100.00;97632.50;5088963;28;20016;-73
2022/04/28 03:46:36;;;;;;;9.65;3.20;;;;;;;14.18;100.00;97627.84;5089386;28;20500;-73
2022/04/28 03:49:05;;;;;;;4.93;3.72;;;;;;;14.19;100.00;97639.47;5072106;28;20036;-75
2022/04/28 03:51:31;;;;;;;3.47;3.00;;;;;;;14.10;100.00;97647.25;5088859;28;20055;-74
2022/04/28 03:54:00;;;;;;;5.00;3.45;;;;;;;14.03;100.00;97642.44;5089064;28;20180;-73
2022/04/28 03:56:30;;;;;;;12.40;7.03;;;;;;;14.05;100.00;97653.97;5090182;28;20058;-74
2022/04/28 03:58:57;;;;;;;3.90;3.40;;;;;;;13.98;100.00;97650.00;5089513;28;20060;-74
2022/04/28 04:01:23;;;;;;;3.65;2.92;;;;;;;14.02;100.00;97651.50;5088727;28;20023;-74
2022/04/28 04:03:49;;;;;;;5.95;3.90;;;;;;;13.97;100.00;97648.28;5088985;28;20035;-74
2022/04/28 04:06:15;;;;;;;5.28;3.97;;;;;;;13.95;100.00;97655.59;5088934;28;20032;-74
2022/04/28 04:08:40;;;;;;;6.78;4.32;;;;;;;13.95;100.00;97650.22;5089149;28;20546;-74
2022/04/28 04:11:06;;;;;;;5.82;4.32;;;;;;;14.05;100.00;97651.28;5088503;28;20032;-74
2022/04/28 04:13:31;;;;;;;4.93;4.40;;;;;;;14.00;100.00;97651.59;5088262;28;20028;-75
2022/04/28 04:15:57;;;;;;;6.65;5.03;;;;;;;14.07;100.00;97652.88;5089023;28;20502;-75
2022/04/28 04:18:22;;;;;;;5.30;3.58;;;;;;;13.87;100.00;97644.56;5072351;28;20039;-73
2022/04/28 04:20:48;;;;;;;4.65;3.78;;;;;;;13.70;100.00;97647.63;5088921;28;20032;-72
2022/04/28 04:23:14;;;;;;;7.72;4.05;;;;;;;13.69;100.00;97662.88;5088875;28;20024;-73
2022/04/28 04:25:39;;;;;;;5.97;5.10;;;;;;;13.66;100.00;97662.28;5089946;28;20498;-73
2022/04/28 04:28:05;;;;;;;3.97;3.30;;;;;;;13.63;100.00;97674.06;5089051;28;20058;-73
2022/04/28 04:33:15;;;;;;;4.50;3.97;;;;;;;13.56;100.00;97673.69;5090271;28;20031;-74
2022/04/28 04:35:40;;;;;;;3.67;3.20;;;;;;;13.58;100.00;97689.69;5089018;28;20469;-74
2022/04/28 04:38:06;;;;;;;3.40;3.00;;;;;;;13.60;100.00;97678.84;5088751;28;20475;-74
2022/04/28 04:40:31;;;;;;;4.47;3.35;;;;;;;13.48;100.00;97683.25;5088587;28;20027;-74
2022/04/28 04:42:57;;;;;;;3.40;3.00;;;;;;;13.48;100.00;97686.78;5088797;28;20034;-74
2022/04/28 04:48:08;;;;;;;6.63;3.55;;;;;;;13.39;100.00;97691.97;5088958;28;20034;-73
2022/04/28 04:50:34;;;;;;;4.82;3.17;;;;;;;13.33;100.00;97704.00;5088953;28;20077;-73
2022/04/28 04:53:00;;;;;;;5.80;2.83;;;;;;;13.29;100.00;97702.50;5090025;28;20489;-73
2022/04/28 04:55:26;;;;;;;3.60;2.95;;;;;;;13.24;100.00;97699.28;5088597;28;20040;-74
2022/04/28 04:57:51;;;;;;;4.57;3.13;;;;;;;13.07;100.00;97696.03;5088918;28;20024;-73
2022/04/28 05:00:17;;;;;;;3.45;3.00;;;;;;;13.19;100.00;97705.94;5088694;28;20031;-75
2022/04/28 05:02:43;;;;;;;3.78;3.38;;;;;;;13.20;100.00;97715.69;5090380;28;20074;-73
2022/04/28 05:05:09;;;;;;;5.88;4.00;;;;;;;13.22;100.00;97716.47;5091976;28;20089;-73
2022/04/28 05:07:34;;;;;;;4.72;3.30;;;;;;;13.23;100.00;97715.50;5091701;28;20441;-73
2022/04/28 05:10:00;;;;;;;5.13;3.35;;;;;;;13.30;100.00;97714.97;5091896;28;20034;-73
2022/04/28 05:12:26;;;;;;;7.47;4.68;;;;;;;13.35;100.00;97722.72;5092175;28;20479;-73
2022/04/28 05:14:52;;;;;;;3.75;2.88;;;;;;;13.42;100.00;97724.84;5091727;28;20028;-73
2022/04/28 05:17:17;;;;;;;3.97;2.75;;;;;;;13.27;100.00;97714.31;5091994;28;20032;-77
2022/04/28 05:19:43;;;;;;;3.28;2.40;;;;;;;13.30;100.00;97731.09;5091894;28;20024;-74
2022/04/28 05:22:09;;;;;;;4.15;3.28;;;;;;;13.28;100.00;97727.66;5093015;28;20043;-73
2022/04/28 05:24:34;;;;;;;12.32;5.30;;;;;;;13.24;100.00;97744.09;5091465;28;20032;-74
2022/04/28 05:27:00;;;;;;;4.97;3.75;;;;;;;13.23;100.00;97735.16;5091710;28;20024;-74
2022/04/28 05:29:25;;;;;;;5.00;2.83;;;;;;;13.27;100.00;97739.38;5091475;28;20020;-75
2022/04/28 05:31:51;;;;;;;4.47;2.58;;;;;;;13.27;100.00;97746.56;5091182;28;20090;-75
2022/04/28 05:34:17;;;;;;;2.35;2.10;;;;;;;13.34;100.00;97742.47;5091725;28;20120;-74
2022/04/28 05:36:43;;;;;;;3.28;1.50;;;;;;;13.30;100.00;97751.72;5091059;28;20109;-75
2022/04/28 05:39:08;;;;;;;5.78;1.90;;;;;;;13.23;100.00;97748.59;5093352;28;20016;-75
2022/04/28 05:41:35;;;;;;;5.50;2.80;;;;;;;13.30;100.00;97754.41;5091338;28;20023;-75
2022/04/28 05:46:45;;;;;;;7.03;2.10;;;;;;;13.25;100.00;97754.75;5091810;28;20043;-75
2022/04/28 05:49:10;;;;;;;2.75;1.85;;;;;;;13.27;100.00;97758.16;5092849;28;20025;-75
2022/04/28 05:51:36;;;;;;;2.50;1.50;;;;;;;13.35;97.70;97755.78;5091201;28;20024;-76
2022/04/28 05:54:01;;;;;;;3.38;1.90;;;;;;;13.34;99.17;97759.47;5091382;28;20016;-75
2022/04/28 05:56:28;;;;;;;1.95;1.60;;;;;;;13.43;100.00;97769.56;5091374;28;20403;-75
2022/04/28 05:58:55;;;;;;;6.43;2.20;;;;;;;13.44;99.20;97765.91;5090944;28;20051;-76
2022/04/28 06:01:21;;;;;;;5.55;2.20;;;;;;;13.51;99.60;97771.72;5091409;28;20028;-75
2022/04/28 06:03:47;;;;;;;2.53;1.83;;;;;;;13.34;98.32;97758.59;5091203;28;20147;-75
2022/04/28 06:06:12;;;;;;;6.93;2.00;;;;;;;13.42;97.45;97767.84;5108106;28;20028;-76
2022/04/28 06:08:41;;;;;;;3.75;1.83;;;;;;;13.45;98.05;97766.78;5092328;28;20028;-75
2022/04/28 06:11:06;;;;;;;11.80;3.63;;;;;;;13.47;96.86;97776.44;5091265;28;20026;-74
2022/04/28 06:13:32;;;;;;;3.17;1.80;;;;;;;13.65;92.00;97773.44;5090959;28;20099;-75
2022/04/28 06:15:58;;;;;;;3.70;1.63;;;;;;;13.72;89.03;97774.75;5074044;28;20089;-75
2022/04/28 06:18:24;;;;;;;2.70;1.38;;;;;;;13.71;87.72;97775.69;5073991;28;20020;-75
2022/04/28 06:20:50;;;;;;;9.80;1.83;;;;;;;13.70;89.95;97779.34;5090705;28;20024;-75
2022/04/28 06:23:15;;;;;;;2.53;1.30;;;;;;;13.72;87.29;97766.66;5092423;28;20035;-75
2022/04/28 06:25:41;;;;;;;15.60;1.55;;;;;;;13.83;86.10;97777.50;5090957;28;20048;-75
2022/04/28 06:28:07;;;;;;;4.30;1.30;;;;;;;13.76;85.43;97784.28;5090415;28;20024;-75
2022/04/28 06:30:32;;;;;;;3.70;1.50;;;;;;;13.76;86.15;97790.53;5090834;28;20483;-75
2022/04/28 06:32:58;;;;;;;3.10;1.70;;;;;;;13.82;85.50;97795.47;5090505;28;20102;-75
2022/04/28 06:35:24;;;;;;;3.75;1.52;;;;;;;13.84;83.44;97780.06;5090502;28;20027;-74
2022/04/28 06:37:50;;;;;;;8.68;2.85;;;;;;;13.84;84.08;97790.81;5090197;28;20496;-76
2022/04/28 06:40:16;;;;;;;2.53;1.40;;;;;;;13.88;82.86;97788.78;5090513;28;20020;-75
2022/04/28 06:42:44;;;;;;;4.60;1.60;;;;;;;13.81;84.00;97795.59;5090795;28;20423;-75
2022/04/28 06:45:12;;;;;;;19.58;8.43;;;;;;;13.84;83.53;97782.75;5090453;28;20032;-75
2022/04/28 06:47:39;;;;;;;7.45;1.95;;;;;;;13.86;82.71;97788.91;5090582;28;20043;-75
2022/04/28 06:50:05;;;;;;;6.13;2.05;;;;;;;13.93;82.90;97798.28;5090098;28;20119;-75
2022/04/28 06:52:31;;;;;;;4.53;2.28;;;;;;;13.95;83.20;97790.06;5090355;28;20119;-75
2022/04/28 06:54:59;;;;;;;6.43;2.58;;;;;;;13.92;83.10;97801.91;5091116;28;20453;-78
2022/04/28 06:57:25;;;;;;;3.95;2.00;;;;;;;13.96;81.35;97789.13;5090359;28;20524;-74
2022/04/28 06:59:51;;;;;;;3.38;1.90;;;;;;;14.19;80.84;97798.19;5089920;28;20036;-75
2022/04/28 07:02:17;;;;;;;11.05;1.65;;;;;;;14.24;79.34;97804.13;5091051;28;20055;-75
2022/04/28 07:04:43;;;;;;;9.40;4.78;;;;;;;14.36;78.86;97798.75;5090200;28;20377;-76
2022/04/28 07:07:08;;;;;;;8.30;1.77;;;;;;;14.25;79.18;97795.06;5089925;28;20024;-74
2022/04/28 07:09:34;;;;;;;3.85;1.67;;;;;;;14.17;79.31;97795.63;5089856;28;20031;-74
2022/04/28 07:12:00;;;;;;;6.68;2.53;;;;;;;14.23;81.86;97803.25;5090942;28;20509;-76
2022/04/28 07:14:25;;;;;;;2.28;1.60;;;;;;;14.25;77.01;97801.31;5106750;28;20027;-75
2022/04/28 07:16:51;;;;;;;10.80;2.08;;;;;;;14.20;77.50;97798.09;5090921;28;20031;-76
2022/04/28 07:19:17;;;;;;;3.92;1.50;;;;;;;14.39;78.03;97803.03;5089539;28;20177;-76
2022/04/28 07:21:42;;;;;;;4.75;1.75;;;;;;;14.47;78.15;97806.88;5089678;28;20058;-75
2022/04/28 07:24:08;;;;;;;6.32;1.70;;;;;;;14.51;78.64;97807.53;5090517;28;20024;-75
2022/04/28 07:26:34;;;;;;;7.05;1.50;;;;;;;14.54;77.45;97818.94;5089600;28;20024;-75
2022/04/28 07:28:59;;;;;;;1.55;1.45;;;;;;;14.58;77.64;97820.41;5090750;28;20056;-76
2022/04/28 07:31:25;;;;;;;6.88;1.38;;;;;;;14.71;76.57;97822.19;5089465;28;20084;-76
2022/04/28 07:33:56;;;;;;;3.80;1.25;;;;;;;14.80;75.89;97826.91;5086119;28;20491;-77
2022/04/28 07:36:24;;;;;;;3.00;1.20;;;;;;;14.94;77.07;97826.75;5086853;28;20043;-74
2022/04/28 07:38:50;;;;;;;5.90;1.27;;;;;;;14.89;76.28;97819.00;5090888;28;20020;-75
2022/04/28 07:41:15;;;;;;;4.22;1.50;;;;;;;14.92;76.59;97818.75;5106160;28;20403;-75
2022/04/28 07:43:41;;;;;;;6.90;1.98;;;;;;;15.06;76.86;97820.44;5089510;28;20120;-74
2022/04/28 07:46:07;;;;;;;5.03;1.27;;;;;;;15.13;75.27;97821.69;5089617;28;20024;-75
2022/04/28 07:48:32;;;;;;;10.63;1.50;;;;;;;14.99;73.72;97824.56;5089216;28;20093;-75
2022/04/28 07:50:58;;;;;;;3.85;2.22;;;;;;;15.02;73.28;97817.09;5089269;28;20024;-75
2022/04/28 07:53:24;;;;;;;3.20;1.50;;;;;;;15.16;72.64;97824.16;5089287;28;20024;-75
2022/04/28 07:58:33;;;;;;;6.63;1.60;;;;;;;15.36;71.90;97828.88;5090307;28;20145;-76
2022/04/28 08:00:59;;;;;;;11.52;1.98;;;;;;;15.55;69.72;97814.88;5089536;28;20041;-76
2022/04/28 08:03:25;;;;;;;25.02;2.10;;;;;;;15.75;69.91;97822.25;5089079;28;20027;-76
2022/04/28 08:05:52;;;;;;;7.35;1.30;;;;;;;15.58;70.08;97823.59;5089407;28;20032;-75
2022/04/28 08:08:18;;;;;;;16.23;2.30;;;;;;;15.63;70.31;97826.75;5089509;28;20101;-76
2022/04/28 08:10:43;;;;;;;6.78;1.58;;;;;;;15.87;67.61;97817.75;5106047;28;20032;-75
2022/04/28 08:13:09;;;;;;;15.60;1.80;;;;;;;16.10;67.49;97824.88;5089186;28;20055;-75
2022/04/28 08:15:35;;;;;;;3.63;1.20;;;;;;;16.32;65.85;97819.47;5088855;28;20067;-76
2022/04/28 08:18:01;;;;;;;7.28;1.92;;;;;;;16.41;65.89;97821.44;5089209;28;20466;-75
2022/04/28 08:20:26;;;;;;;4.82;1.30;;;;;;;16.64;64.61;97819.59;5088779;28;20093;-75
2022/04/28 08:22:52;;;;;;;8.93;1.10;;;;;;;16.67;63.17;97830.16;5089108;28;20133;-75
2022/04/28 08:25:18;;;;;;;6.22;1.40;;;;;;;16.57;64.23;97827.34;5090497;28;20058;-76
2022/04/28 08:27:43;;;;;;;1.90;1.10;;;;;;;16.77;63.22;97837.34;5090024;28;20036;-75
2022/04/28 08:30:10;;;;;;;9.50;2.05;;;;;;;17.01;62.49;97823.66;5106008;28;20160;-75
2022/04/28 08:32:36;;;;;;;8.52;1.77;;;;;;;16.81;62.90;97832.56;5088906;28;20120;-76
2022/04/28 08:35:02;;;;;;;30.00;3.00;;;;;;;16.90;61.76;97830.94;5090223;28;20469;-73
2022/04/28 08:37:27;;;;;;;10.80;2.08;;;;;;;16.93;61.52;97838.78;5090814;28;20418;-75
2022/04/28 08:39:53;;;;;;;4.40;1.27;;;;;;;17.17;59.76;97828.63;5092622;28;20048;-74
2022/04/28 08:42:21;;;;;;;4.15;1.65;;;;;;;17.25;59.90;97843.25;5092783;28;20464;-75
2022/04/28 08:44:47;;;;;;;17.10;1.85;;;;;;;17.30;60.36;97837.44;5092368;28;20078;-75
2022/04/28 08:47:13;;;;;;;4.35;1.30;;;;;;;17.27;60.18;97846.66;5092881;28;20051;-75
2022/04/28 08:49:43;;;;;;;10.27;1.63;;;;;;;17.43;60.19;97848.06;5075322;28;20028;-75
2022/04/28 08:52:10;;;;;;;4.95;1.48;;;;;;;17.20;59.21;97833.78;5092693;28;20028;-76
2022/04/28 08:54:38;;;;;;;5.80;1.40;;;;;;;16.92;59.86;97850.59;5092420;28;20031;-75
2022/04/28 08:57:03;;;;;;;7.07;1.50;;;;;;;16.78;60.62;97844.50;5092258;28;20224;-75
2022/04/28 08:59:29;;;;;;;4.30;1.40;;;;;;;16.97;60.67;97835.72;5092362;28;20157;-75
2022/04/28 09:01:54;;;;;;;4.28;1.80;;;;;;;17.11;59.80;97840.81;5092302;28;20046;-75
2022/04/28 09:04:22;;;;;;;2.17;1.40;;;;;;;17.15;58.49;97838.72;5092422;28;20027;-76
2022/04/28 09:06:54;;;;;;;2.38;1.63;;;;;;;17.33;57.65;97837.19;5091948;28;20403;-75
2022/04/28 09:09:20;;;;;;;3.67;1.20;;;;;;;17.06;58.43;97834.09;5092216;28;20039;-75
2022/04/28 09:11:47;;;;;;;2.63;1.25;;;;;;;17.20;58.38;97834.66;5092011;28;20064;-75
2022/04/28 09:14:15;;;;;;;6.95;3.65;;;;;;;17.11;59.43;97830.00;5092303;28;20024;-75
2022/04/28 09:16:42;;;;;;;3.40;1.60;;;;;;;17.07;58.86;97841.22;5092041;28;20173;-75
2022/04/28 09:19:13;;;;;;;3.78;2.95;;;;;;;17.13;59.23;97828.06;5093323;28;20111;-75
2022/04/28 09:21:40;;;;;;;5.47;1.70;;;;;;;17.22;58.47;97840.81;5092107;28;20065;-75
2022/04/28 09:24:06;;;;;;;2.88;1.67;;;;;;;17.14;58.30;97837.00;5091980;28;20023;-75
2022/04/28 09:26:33;;;;;;;1.40;1.30;;;;;;;16.77;59.13;97842.75;5091844;28;20020;-75
2022/04/28 09:29:03;;;;;;;1.98;1.45;;;;;;;17.08;58.70;97843.78;5091580;28;20085;-76
2022/04/28 09:31:32;;;;;;;16.95;8.52;;;;;;;17.40;57.97;97838.38;5091880;28;20108;-75
2022/04/28 09:34:04;;;;;;;5.22;1.60;;;;;;;17.15;57.78;97846.84;5091619;28;20024;-75
2022/04/28 09:36:30;;;;;;;3.92;1.80;;;;;;;16.93;58.62;97841.50;5091464;28;20068;-75
2022/04/28 09:38:55;;;;;;;4.07;1.77;;;;;;;17.09;58.66;97848.22;5091163;28;20447;-76
2022/04/28 09:44:05;;;;;;;3.83;1.67;;;;;;;16.92;59.24;97840.63;5092794;28;20042;-76
2022/04/28 09:46:31;;;;;;;4.03;1.42;;;;;;;16.97;59.08;97845.66;5074546;28;20032;-76
2022/04/28 09:48:57;;;;;;;2.63;1.20;;;;;;;17.27;57.79;97837.69;5092306;28;20028;-76
2022/04/28 09:51:25;;;;;;;3.40;2.10;;;;;;;17.49;57.19;97839.44;5091696;28;20028;-75
2022/04/28 09:53:51;;;;;;;2.70;1.50;;;;;;;17.61;56.32;97842.00;5091506;28;20081;-75
2022/04/28 09:56:21;;;;;;;5.07;1.80;;;;;;;17.50;56.47;97849.28;5092908;28;20031;-75
2022/04/28 09:58:48;;;;;;;4.80;1.60;;;;;;;17.73;56.19;97838.22;5074852;28;20032;-75
2022/04/28 10:01:15;;;;;;;4.00;1.60;;;;;;;17.46;56.40;97829.75;5091391;28;20467;-75
2022/04/28 10:03:41;;;;;;;2.17;1.50;;;;;;;17.50;56.27;97836.63;5091514;28;20028;-75
2022/04/28 10:06:07;;;;;;;2.10;1.50;;;;;;;17.40;56.09;97846.50;5090993;28;20035;-75
2022/04/28 10:08:34;;;;;;;1.92;1.67;;;;;;;17.31;56.99;97842.72;5091038;28;20419;-76
2022/04/28 10:11:03;;;;;;;5.90;1.70;;;;;;;17.34;56.63;97836.19;5090864;28;20475;-75
2022/04/28 10:13:30;;;;;;;2.10;1.70;;;;;;;17.19;57.03;97842.91;5091133;28;20027;-75
2022/04/28 10:15:59;;;;;;;2.88;1.42;;;;;;;17.11;56.68;97835.41;5090780;28;20116;-75
2022/04/28 10:18:32;;;;;;;1.92;1.63;;;;;;;17.18;56.82;97836.63;5090618;28;20016;-75
2022/04/28 10:21:00;;;;;;;3.05;1.70;;;;;;;16.99;57.26;97832.88;5090709;28;20027;-75
2022/04/28 10:35:01;;;;;;;5.70;3.00;;;;;;;17.99;54.43;97829.69;5091027;28;20031;-76
2022/04/28 10:37:34;;;;;;;3.13;1.40;;;;;;;17.75;54.73;97825.41;5107101;28;20048;-76
2022/04/28 10:39:59;;;;;;;2.88;1.42;;;;;;;17.28;55.46;97824.06;5090348;28;20028;-76
2022/04/28 10:42:25;;;;;;;7.72;1.30;;;;;;;17.52;56.21;97828.34;5090800;28;20391;-76
2022/04/28 10:44:56;;;;;;;3.28;1.60;;;;;;;17.52;55.69;97826.50;5091959;28;20453;-77
2022/04/28 10:47:28;;;;;;;2.08;1.45;;;;;;;17.84;55.25;97819.19;5074056;28;20035;-76
2022/04/28 10:49:54;;;;;;;2.15;1.50;;;;;;;17.71;54.62;97812.31;5090287;28;20028;-76
2022/04/28 10:52:22;;;;;;;3.28;1.55;;;;;;;17.95;54.19;97804.75;5090161;28;20027;-76
2022/04/28 10:54:51;;;;;;;2.08;1.40;;;;;;;18.02;54.58;97808.66;5090119;28;20043;-76
2022/04/28 10:57:17;;;;;;;4.80;1.63;;;;;;;17.66;55.01;97809.09;5089906;28;20032;-76
2022/04/28 10:59:49;;;;;;;3.53;1.80;;;;;;;18.53;53.52;97810.44;5090724;28;20562;-76
2022/04/28 11:02:18;;;;;;;3.45;2.00;;;;;;;19.21;51.72;97809.56;5090403;28;20040;-76
2022/04/28 11:05:06;;;;;;;1.63;1.52;;;;;;;20.10;49.19;97806.50;5091307;28;20399;-76
2022/04/28 11:07:32;;;;;;;4.63;1.70;;;;;;;20.55;49.01;97809.31;5090459;28;20023;-75
2022/04/28 11:09:59;;;;;;;5.82;1.70;;;;;;;20.55;46.79;97791.16;5071684;28;20035;-75
2022/04/28 11:12:36;;;;;;;3.22;1.58;;;;;;;21.03;46.65;97796.31;5091196;28;20039;-75
2022/04/28 11:15:08;;;;;;;1.63;1.35;;;;;;;21.13;45.77;97784.53;5089893;28;20020;-75
2022/04/28 11:17:38;;;;;;;3.33;1.40;;;;;;;21.53;45.86;97793.09;5073253;28;20035;-76
2022/04/28 11:20:12;;;;;;;1.50;1.27;;;;;;;22.07;44.70;97781.09;5089976;28;20015;-75
2022/04/28 11:22:46;;;;;;;4.45;1.90;;;;;;;22.27;44.85;97784.44;5089736;28;20054;-76
2022/04/28 11:25:17;;;;;;;2.95;1.63;;;;;;;22.46;44.38;97789.66;5082928;28;20035;-76
2022/04/28 11:27:45;;;;;;;3.90;1.50;;;;;;;22.40;44.03;97782.13;5089560;28;20460;-76
2022/04/28 11:30:14;;;;;;;7.00;1.70;;;;;;;22.35;44.28;97781.75;5072821;28;20024;-76
2022/04/28 11:32:51;;;;;;;4.38;1.85;;;;;;;22.89;44.20;97783.19;5089578;28;20028;-76
2022/04/28 11:35:18;;;;;;;4.65;1.58;;;;;;;22.86;43.61;97786.25;5090872;28;20020;-76
2022/04/28 11:37:44;;;;;;;2.28;1.50;;;;;;;23.33;43.17;97786.53;5089277;28;20048;-76
2022/04/28 11:40:14;;;;;;;5.45;4.30;;;;;;;24.02;41.74;97775.13;5089365;28;20028;-76
2022/04/28 11:42:41;;;;;;;28.58;17.45;;;;;;;24.43;41.01;97764.97;5089613;28;20035;-76
2022/04/28 11:45:07;;;;;;;3.83;1.70;;;;;;;24.82;39.00;97763.16;5089684;28;20119;-76
2022/04/28 11:47:46;;;;;;;1.90;1.60;;;;;;;23.45;41.82;97763.38;5089505;28;20028;-76
2022/04/28 11:50:20;;;;;;;3.75;1.90;;;;;;;22.46;42.79;97770.56;5089255;28;20028;-76
2022/04/28 11:52:57;;;;;;;3.55;1.52;;;;;;;21.16;44.89;97776.06;5089343;28;20032;-76
2022/04/28 11:55:26;;;;;;;1.70;1.60;;;;;;;21.62;44.63;97784.81;5083467;28;20030;-76
2022/04/28 11:57:52;;;;;;;4.47;2.05;;;;;;;21.81;45.51;97783.75;5072375;28;20119;-76
2022/04/28 12:00:18;;;;;;;2.30;1.40;;;;;;;21.53;44.31;97776.75;5089376;28;20078;-77